Time;durP1;ratioP1;P1;durP2;ratioP2;P2;SDS_P1;SDS_P2;PMS_P1;PMS_P2;Temp;Humidity;BMP_temperature;BMP_pressure;BME280_temperature;BME280_humidity;BME280_pressure;Samples;Min_cycle;Max_cycle;Signal;HPM_P1;HPM_P2
2021/03/21 00:00:15;;;;;;;17.10;11.32;;;;;;;;;;5049993;28;20143;-66
2021/03/21 00:02:40;;;;;;;18.67;9.32;;;;;;;;;;5046534;28;20120;-65
2021/03/21 00:05:06;;;;;;;15.90;9.32;;;;;;;;;;5061630;28;20108;-65
2021/03/21 00:07:31;;;;;;;14.65;8.48;;;;;;;;;;5056825;28;20389;-65
2021/03/21 00:09:56;;;;;;;21.52;9.80;;;;;;;;;;5049490;28;20025;-66
2021/03/21 00:12:21;;;;;;;14.75;8.52;;;;;;;;;;5050136;28;20059;-65
2021/03/21 00:14:47;;;;;;;16.17;8.80;;;;;;;;;;5049487;28;20423;-64
2021/03/21 00:17:12;;;;;;;18.25;10.57;;;;;;;;;;5049231;28;20028;-65
2021/03/21 00:19:37;;;;;;;20.60;10.65;;;;;;;;;;5049824;28;20013;-65
2021/03/21 00:22:02;;;;;;;16.42;10.15;;;;;;;;;;5050129;28;20109;-65
2021/03/21 00:24:28;;;;;;;19.08;10.77;;;;;;;;;;5050581;28;20312;-64
2021/03/21 00:26:53;;;;;;;23.15;12.10;;;;;;;;;;5054474;28;20029;-66
2021/03/21 00:29:18;;;;;;;21.38;12.00;;;;;;;;;;5053646;28;20143;-64
2021/03/21 00:31:43;;;;;;;23.88;13.80;;;;;;;;;;5053892;28;20100;-65
2021/03/21 00:34:08;;;;;;;26.50;15.10;;;;;;;;;;5059317;28;20307;-64
2021/03/21 00:36:34;;;;;;;29.10;15.57;;;;;;;;;;5063411;28;20099;-64
2021/03/21 00:38:59;;;;;;;26.70;15.77;;;;;;;;;;5055304;28;20376;-65
2021/03/21 00:41:25;;;;;;;29.95;16.85;;;;;;;;;;5054007;28;20095;-64
2021/03/21 00:43:51;;;;;;;29.15;17.45;;;;;;;;;;5053278;28;20051;-65
2021/03/21 00:46:16;;;;;;;26.38;15.38;;;;;;;;;;5053894;28;20397;-64
2021/03/21 00:48:43;;;;;;;31.52;17.77;;;;;;;;;;5053055;28;20021;-65
2021/03/21 00:51:09;;;;;;;39.33;21.80;;;;;;;;;;5053483;28;20099;-64
2021/03/21 00:53:34;;;;;;;36.83;18.77;;;;;;;;;;5053533;28;20444;-66
2021/03/21 00:56:00;;;;;;;35.40;20.88;;;;;;;;;;5053348;28;20284;-66
2021/03/21 00:58:25;;;;;;;39.20;20.48;;;;;;;;;;5052540;28;20070;-65
2021/03/21 01:00:52;;;;;;;35.85;19.40;;;;;;;;;;5053398;28;20039;-65
2021/03/21 01:03:17;;;;;;;40.53;21.63;;;;;;;;;;5052624;28;20020;-65
2021/03/21 01:05:45;;;;;;;40.38;24.42;;;;;;;;;;5041814;28;20017;-64
2021/03/21 01:08:27;;;;;;;38.53;21.70;;;;;;;;;;5052192;28;20078;-65
2021/03/21 01:10:58;;;;;;;44.45;22.48;;;;;;;;;;5052809;28;20240;-65
2021/03/21 01:13:24;;;;;;;49.33;25.02;;;;;;;;;;5053069;28;20469;-64
2021/03/21 01:15:49;;;;;;;44.55;27.85;;;;;;;;;;5052516;28;20028;-65
2021/03/21 01:18:16;;;;;;;55.25;30.27;;;;;;;;;;5052819;28;20017;-67
2021/03/21 01:20:41;;;;;;;49.65;26.58;;;;;;;;;;5052820;28;20393;-65
2021/03/21 01:23:06;;;;;;;52.30;26.98;;;;;;;;;;5052171;28;20020;-65
2021/03/21 01:25:31;;;;;;;52.45;27.67;;;;;;;;;;5052463;28;20051;-64
2021/03/21 01:27:56;;;;;;;54.88;27.17;;;;;;;;;;5048202;28;20025;-65
2021/03/21 01:30:23;;;;;;;64.43;30.08;;;;;;;;;;5052209;28;20112;-64
2021/03/21 01:32:49;;;;;;;59.92;29.08;;;;;;;;;;5033546;28;20017;-64
2021/03/21 01:35:14;;;;;;;52.58;27.80;;;;;;;;;;5059711;28;20488;-65
2021/03/21 01:37:39;;;;;;;70.43;37.10;;;;;;;;;;5053537;28;20013;-64
2021/03/21 01:40:09;;;;;;;68.72;32.60;;;;;;;;;;5051695;28;20024;-64
2021/03/21 01:42:37;;;;;;;63.60;32.08;;;;;;;;;;5052086;28;20182;-64
2021/03/21 01:45:22;;;;;;;67.68;36.17;;;;;;;;;;5051983;28;20058;-64
2021/03/21 01:47:47;;;;;;;62.20;30.02;;;;;;;;;;5050683;28;20469;-64
2021/03/21 01:50:24;;;;;;;62.78;30.75;;;;;;;;;;5052256;28;20051;-65
2021/03/21 01:52:50;;;;;;;66.93;33.10;;;;;;;;;;5051527;28;20016;-64
2021/03/21 01:55:16;;;;;;;60.78;30.63;;;;;;;;;;5051182;28;20012;-65
2021/03/21 01:57:42;;;;;;;58.83;31.67;;;;;;;;;;5051541;28;20029;-64
2021/03/21 02:00:08;;;;;;;54.42;28.75;;;;;;;;;;5051780;28;20478;-64
2021/03/21 02:02:33;;;;;;;54.42;27.08;;;;;;;;;;5051362;28;20068;-64
2021/03/21 02:04:58;;;;;;;52.88;26.58;;;;;;;;;;5057140;28;20066;-65
2021/03/21 02:07:44;;;;;;;46.42;24.23;;;;;;;;;;5059307;28;20027;-64
2021/03/21 02:10:12;;;;;;;52.60;26.42;;;;;;;;;;5051499;28;20029;-65
2021/03/21 02:12:56;;;;;;;55.88;28.33;;;;;;;;;;5051676;28;20079;-64
2021/03/21 02:15:36;;;;;;;48.30;25.50;;;;;;;;;;5047540;28;20025;-65
2021/03/21 02:18:01;;;;;;;55.53;27.23;;;;;;;;;;5049857;28;20413;-65
2021/03/21 02:20:41;;;;;;;51.80;26.20;;;;;;;;;;5058918;28;21241;-64
2021/03/21 02:23:14;;;;;;;50.50;27.05;;;;;;;;;;5046493;28;20260;-65
2021/03/21 02:25:48;;;;;;;46.67;21.13;;;;;;;;;;5050617;28;20036;-64
2021/03/21 02:28:13;;;;;;;44.03;21.08;;;;;;;;;;5049345;28;20083;-65
2021/03/21 02:30:43;;;;;;;43.50;22.52;;;;;;;;;;5042670;28;20021;-64
2021/03/21 02:33:12;;;;;;;39.90;22.23;;;;;;;;;;5049713;28;20025;-64
2021/03/21 02:35:51;;;;;;;46.75;23.77;;;;;;;;;;5050726;28;20071;-64
2021/03/21 02:38:31;;;;;;;51.65;25.30;;;;;;;;;;5050919;28;20096;-65
2021/03/21 02:41:00;;;;;;;40.88;22.30;;;;;;;;;;5043771;28;20071;-64
2021/03/21 02:43:31;;;;;;;48.92;23.13;;;;;;;;;;5051413;28;20033;-64
2021/03/21 02:45:58;;;;;;;40.75;20.95;;;;;;;;;;5050440;28;20477;-64
2021/03/21 02:48:30;;;;;;;42.83;21.67;;;;;;;;;;5041952;28;20044;-64
2021/03/21 02:50:57;;;;;;;43.05;22.15;;;;;;;;;;5046473;28;20086;-64
2021/03/21 02:53:37;;;;;;;40.10;20.33;;;;;;;;;;5051268;28;20028;-64
2021/03/21 02:56:04;;;;;;;42.10;21.58;;;;;;;;;;5047679;28;20382;-64
2021/03/21 02:58:32;;;;;;;39.63;21.52;;;;;;;;;;5050227;28;20071;-64
2021/03/21 03:00:59;;;;;;;42.00;22.27;;;;;;;;;;5045143;28;20027;-64
2021/03/21 03:03:26;;;;;;;40.38;21.42;;;;;;;;;;5031923;28;20021;-64
2021/03/21 03:05:52;;;;;;;41.67;22.33;;;;;;;;;;5039020;28;20021;-64
2021/03/21 03:08:23;;;;;;;47.88;24.13;;;;;;;;;;5046689;28;20025;-64
2021/03/21 03:10:48;;;;;;;;;;;;;;;;;;5050943;28;20017;-64
2021/03/21 03:13:13;;;;;;;47.50;21.58;;;;;;;;;;5050474;28;19909;-64
2021/03/21 03:15:39;;;;;;;45.70;20.60;;;;;;;;;;5049417;28;20056;-64
2021/03/21 03:18:08;;;;;;;47.97;21.77;;;;;;;;;;5049920;28;20023;-64
2021/03/21 03:20:38;;;;;;;50.78;23.42;;;;;;;;;;5050355;28;20416;-64
2021/03/21 03:23:10;;;;;;;41.38;21.85;;;;;;;;;;5046369;28;20056;-64
2021/03/21 03:25:42;;;;;;;45.38;21.58;;;;;;;;;;5049868;28;20091;-64
2021/03/21 03:28:19;;;;;;;37.83;20.08;;;;;;;;;;5035097;28;20025;-64
2021/03/21 03:30:59;;;;;;;40.22;20.70;;;;;;;;;;5049644;28;20031;-64
2021/03/21 03:33:25;;;;;;;41.22;23.20;;;;;;;;;;5049605;28;20017;-64
2021/03/21 03:35:51;;;;;;;43.38;22.02;;;;;;;;;;5042013;28;20082;-64
2021/03/21 03:38:17;;;;;;;40.22;20.33;;;;;;;;;;5050346;28;20469;-64
2021/03/21 03:40:44;;;;;;;48.55;24.83;;;;;;;;;;5049529;28;20444;-64
2021/03/21 03:43:22;;;;;;;45.00;22.25;;;;;;;;;;5041372;28;20079;-64
2021/03/21 03:45:53;;;;;;;40.65;22.60;;;;;;;;;;5044212;28;20025;-64
2021/03/21 03:48:40;;;;;;;46.03;20.85;;;;;;;;;;5049509;28;20057;-64
2021/03/21 03:51:09;;;;;;;41.55;20.40;;;;;;;;;;5046057;28;20025;-64
2021/03/21 03:53:41;;;;;;;41.58;24.13;;;;;;;;;;5050240;28;20017;-64
2021/03/21 03:56:06;;;;;;;44.80;20.95;;;;;;;;;;5049675;28;20381;-64
2021/03/21 03:58:31;;;;;;;41.20;20.88;;;;;;;;;;5048984;28;20017;-64
2021/03/21 04:01:03;;;;;;;43.35;21.45;;;;;;;;;;5049191;28;20040;-64
2021/03/21 04:03:36;;;;;;;42.35;21.38;;;;;;;;;;5049318;28;20313;-64
2021/03/21 04:06:04;;;;;;;45.45;21.38;;;;;;;;;;5052296;28;20033;-64
2021/03/21 04:08:42;;;;;;;47.53;23.70;;;;;;;;;;5049597;28;20489;-64
2021/03/21 04:11:12;;;;;;;46.13;25.33;;;;;;;;;;5049925;28;20116;-64
2021/03/21 04:13:42;;;;;;;46.65;24.35;;;;;;;;;;5046698;28;20539;-64
2021/03/21 04:16:10;;;;;;;46.45;23.25;;;;;;;;;;5051969;28;20033;-64
2021/03/21 04:18:46;;;;;;;47.38;23.08;;;;;;;;;;5035632;28;20541;-64
2021/03/21 04:21:11;;;;;;;49.70;25.92;;;;;;;;;;5049855;28;20031;-64
2021/03/21 04:23:36;;;;;;;46.00;25.23;;;;;;;;;;5049882;28;20029;-64
2021/03/21 04:26:05;;;;;;;49.63;23.45;;;;;;;;;;5049224;28;20282;-66
2021/03/21 04:28:35;;;;;;;45.88;24.00;;;;;;;;;;5049253;28;20740;-64
2021/03/21 04:31:02;;;;;;;45.58;20.92;;;;;;;;;;5049514;28;20032;-65
2021/03/21 04:33:32;;;;;;;40.88;18.85;;;;;;;;;;5049550;28;20473;-64
2021/03/21 04:36:03;;;;;;;41.60;19.50;;;;;;;;;;5061654;28;20342;-64
2021/03/21 04:38:38;;;;;;;37.50;18.77;;;;;;;;;;5051151;28;20116;-64
2021/03/21 04:41:04;;;;;;;40.58;19.27;;;;;;;;;;5064627;28;20079;-65
2021/03/21 04:43:29;;;;;;;37.95;18.88;;;;;;;;;;5049405;28;20041;-65
2021/03/21 04:45:56;;;;;;;52.92;22.25;;;;;;;;;;5043694;28;20049;-64
2021/03/21 04:48:24;;;;;;;50.72;24.30;;;;;;;;;;5049099;28;20364;-64
2021/03/21 04:50:54;;;;;;;50.80;21.63;;;;;;;;;;5048693;28;20025;-64
2021/03/21 04:53:19;;;;;;;;;;;;;;;;;;5049788;28;20021;-64
2021/03/21 04:55:46;;;;;;;41.28;18.98;;;;;;;;;;5049480;28;19915;-65
2021/03/21 04:58:17;;;;;;;41.72;22.50;;;;;;;;;;5049043;28;20025;-64
2021/03/21 05:00:45;;;;;;;40.75;19.10;;;;;;;;;;5045754;28;20104;-64
2021/03/21 05:03:28;;;;;;;33.45;15.75;;;;;;;;;;5031448;28;20533;-64
2021/03/21 05:06:03;;;;;;;35.10;16.13;;;;;;;;;;5046051;28;20111;-64
2021/03/21 05:08:32;;;;;;;44.58;20.08;;;;;;;;;;5053790;28;20059;-64
2021/03/21 05:10:59;;;;;;;42.28;19.02;;;;;;;;;;5059810;28;20432;-64
2021/03/21 05:13:24;;;;;;;44.80;20.50;;;;;;;;;;5050057;28;20021;-64
2021/03/21 05:15:58;;;;;;;45.90;20.60;;;;;;;;;;5052596;28;20021;-65
2021/03/21 05:18:28;;;;;;;47.50;20.23;;;;;;;;;;5052458;28;20317;-64
2021/03/21 05:21:12;;;;;;;46.53;18.60;;;;;;;;;;5052082;28;20029;-64
2021/03/21 05:23:42;;;;;;;50.85;22.13;;;;;;;;;;5052951;28;20512;-65
2021/03/21 05:26:09;;;;;;;42.25;18.20;;;;;;;;;;5051661;28;20139;-64
2021/03/21 05:28:46;;;;;;;50.13;20.38;;;;;;;;;;5052256;28;20075;-64
2021/03/21 05:31:12;;;;;;;42.42;17.63;;;;;;;;;;5043669;28;20120;-64
2021/03/21 05:33:38;;;;;;;46.28;19.35;;;;;;;;;;5050524;28;20100;-64
2021/03/21 05:36:10;;;;;;;46.17;19.20;;;;;;;;;;5052407;28;20021;-65
2021/03/21 05:39:04;;;;;;;48.88;19.52;;;;;;;;;;5051412;28;20511;-64
2021/03/21 05:41:44;;;;;;;46.10;19.50;;;;;;;;;;5030048;28;20029;-64
2021/03/21 05:44:25;;;;;;;48.75;22.65;;;;;;;;;;5049870;28;20021;-64
2021/03/21 05:46:50;;;;;;;51.70;20.33;;;;;;;;;;5047183;28;20033;-64
2021/03/21 05:49:34;;;;;;;52.92;22.58;;;;;;;;;;5049700;28;20025;-64
2021/03/21 05:52:05;;;;;;;53.03;19.73;;;;;;;;;;5051985;28;20098;-64
2021/03/21 05:54:30;;;;;;;47.25;21.13;;;;;;;;;;5033886;28;20040;-65
2021/03/21 05:56:55;;;;;;;59.47;23.17;;;;;;;;;;5051678;28;20029;-65
2021/03/21 05:59:30;;;;;;;52.60;21.52;;;;;;;;;;5050920;28;20659;-64
2021/03/21 06:01:57;;;;;;;60.35;25.33;;;;;;;;;;5050954;28;20803;-65
2021/03/21 06:04:25;;;;;;;52.72;20.92;;;;;;;;;;5048889;28;20018;-65
2021/03/21 06:06:57;;;;;;;47.80;20.52;;;;;;;;;;5049871;28;20020;-65
2021/03/21 06:09:40;;;;;;;50.50;18.73;;;;;;;;;;5050728;28;20517;-65
2021/03/21 06:12:08;;;;;;;50.35;19.83;;;;;;;;;;5051464;28;20033;-64
2021/03/21 06:14:42;;;;;;;47.28;19.25;;;;;;;;;;5051161;28;20100;-64
2021/03/21 06:17:07;;;;;;;51.53;20.52;;;;;;;;;;5038886;28;20028;-65
2021/03/21 06:19:51;;;;;;;47.63;18.80;;;;;;;;;;5032461;28;20017;-64
2021/03/21 06:22:35;;;;;;;51.58;20.80;;;;;;;;;;5048878;28;20275;-65
2021/03/21 06:25:20;;;;;;;50.33;19.63;;;;;;;;;;5050730;28;20028;-65
2021/03/21 06:27:55;;;;;;;57.72;20.95;;;;;;;;;;5051293;28;20055;-65
2021/03/21 06:30:23;;;;;;;54.60;23.33;;;;;;;;;;5043242;28;20029;-65
2021/03/21 06:32:51;;;;;;;49.85;20.00;;;;;;;;;;5052312;28;20033;-64
2021/03/21 06:35:38;;;;;;;56.28;22.20;;;;;;;;;;5051094;28;20426;-65
2021/03/21 06:38:22;;;;;;;51.83;20.63;;;;;;;;;;5050552;28;20059;-65
2021/03/21 06:40:52;;;;;;;52.67;22.23;;;;;;;;;;5048389;28;20016;-65
2021/03/21 06:43:23;;;;;;;50.05;19.70;;;;;;;;;;5050355;28;20366;-65
2021/03/21 06:45:59;;;;;;;52.05;19.90;;;;;;;;;;5050942;28;20017;-65
2021/03/21 06:48:37;;;;;;;61.85;21.30;;;;;;;;;;5054096;28;20033;-66
2021/03/21 06:51:21;;;;;;;56.00;21.92;;;;;;;;;;5050712;28;20028;-65
2021/03/21 06:53:46;;;;;;;57.33;23.23;;;;;;;;;;5049440;28;20457;-65
2021/03/21 06:56:14;;;;;;;66.88;25.50;;;;;;;;;;5048908;28;20029;-65
2021/03/21 06:58:45;;;;;;;73.93;28.15;;;;;;;;;;5048057;28;20265;-65
2021/03/21 07:01:27;;;;;;;65.25;28.75;;;;;;;;;;5048188;28;20071;-65
2021/03/21 07:04:18;;;;;;;73.57;27.35;;;;;;;;;;5029167;28;20056;-65
2021/03/21 07:07:02;;;;;;;58.33;26.23;;;;;;;;;;5036400;28;20091;-65
2021/03/21 07:09:36;;;;;;;58.33;25.40;;;;;;;;;;5048694;28;20021;-65
2021/03/21 07:12:16;;;;;;;61.08;24.42;;;;;;;;;;5047137;28;20025;-65
2021/03/21 07:14:51;;;;;;;57.53;23.38;;;;;;;;;;5049076;28;20124;-65
2021/03/21 07:17:19;;;;;;;51.53;21.30;;;;;;;;;;5048607;28;20029;-65
2021/03/21 07:19:55;;;;;;;57.38;24.30;;;;;;;;;;5048115;28;20024;-65
2021/03/21 07:22:53;;;;;;;58.05;22.92;;;;;;;;;;5047761;28;20016;-65
2021/03/21 07:25:27;;;;;;;51.15;23.60;;;;;;;;;;5045237;28;20024;-65
2021/03/21 07:28:22;;;;;;;53.88;23.20;;;;;;;;;;5049680;28;20096;-65
2021/03/21 07:30:56;;;;;;;59.28;25.55;;;;;;;;;;5045528;28;20100;-65
2021/03/21 07:34:00;;;;;;;54.92;24.65;;;;;;;;;;5048888;28;20048;-65
2021/03/21 07:36:44;;;;;;;51.13;22.58;;;;;;;;;;4931184;29;20572;-65
2021/03/21 07:39:12;;;;;;;50.60;22.95;;;;;;;;;;4942648;29;20090;-64
2021/03/21 07:42:12;;;;;;;55.83;24.17;;;;;;;;;;4997830;28;20033;-64
2021/03/21 07:44:47;;;;;;;52.95;21.50;;;;;;;;;;4969484;28;20511;-64
2021/03/21 07:47:15;;;;;;;54.97;24.02;;;;;;;;;;5014954;28;20102;-65
2021/03/21 07:49:43;;;;;;;51.60;23.25;;;;;;;;;;5049012;28;20024;-65
2021/03/21 07:52:08;;;;;;;53.30;24.70;;;;;;;;;;5050124;28;20083;-65
2021/03/21 07:54:44;;;;;;;58.50;25.10;;;;;;;;;;5049902;28;20285;-65
2021/03/21 07:57:09;;;;;;;42.92;20.88;;;;;;;;;;5049288;28;20295;-65
2021/03/21 07:59:35;;;;;;;46.88;22.20;;;;;;;;;;5049927;28;20057;-65
2021/03/21 08:02:00;;;;;;;44.53;19.85;;;;;;;;;;5031017;28;20775;-65
2021/03/21 08:04:27;;;;;;;40.03;19.67;;;;;;;;;;5047844;28;20032;-65
2021/03/21 08:07:10;;;;;;;42.75;19.00;;;;;;;;;;5049600;28;20052;-65
2021/03/21 08:09:38;;;;;;;39.45;18.50;;;;;;;;;;5050755;28;20020;-65
2021/03/21 08:12:06;;;;;;;39.65;17.10;;;;;;;;;;5051096;28;20013;-64
2021/03/21 08:14:32;;;;;;;34.85;17.70;;;;;;;;;;5051240;28;20117;-64
2021/03/21 08:17:16;;;;;;;40.33;16.90;;;;;;;;;;5051084;28;20056;-65
2021/03/21 08:19:41;;;;;;;40.58;16.00;;;;;;;;;;5046742;28;20517;-65
2021/03/21 08:22:27;;;;;;;39.25;21.33;;;;;;;;;;5051225;28;20013;-65
2021/03/21 08:24:54;;;;;;;33.63;17.40;;;;;;;;;;5038661;28;20045;-65
2021/03/21 08:27:30;;;;;;;31.13;15.30;;;;;;;;;;5050090;28;20017;-65
2021/03/21 08:30:01;;;;;;;33.90;15.85;;;;;;;;;;5056840;28;20444;-64
2021/03/21 08:32:27;;;;;;;37.13;16.30;;;;;;;;;;5049886;28;20017;-64
2021/03/21 08:34:53;;;;;;;36.03;19.17;;;;;;;;;;5047532;28;20587;-65
2021/03/21 08:37:21;;;;;;;30.13;14.93;;;;;;;;;;5049766;28;20109;-65
2021/03/21 08:39:49;;;;;;;32.60;15.13;;;;;;;;;;5049227;28;20032;-65
2021/03/21 08:42:26;;;;;;;32.60;14.15;;;;;;;;;;5049637;28;20373;-64
2021/03/21 08:44:52;;;;;;;34.00;15.20;;;;;;;;;;5049256;28;20782;-65
2021/03/21 08:47:19;;;;;;;35.47;16.27;;;;;;;;;;5052779;28;20016;-65
2021/03/21 08:49:46;;;;;;;32.25;14.52;;;;;;;;;;5051349;28;20029;-65
2021/03/21 08:52:25;;;;;;;38.70;14.05;;;;;;;;;;5035365;28;20067;-65
2021/03/21 08:54:51;;;;;;;32.47;14.45;;;;;;;;;;5053985;28;20029;-65
2021/03/21 08:57:29;;;;;;;31.73;13.50;;;;;;;;;;5054453;28;20033;-65
2021/03/21 09:00:11;;;;;;;40.65;15.60;;;;;;;;;;5053834;28;20031;-65
2021/03/21 09:02:38;;;;;;;37.00;15.35;;;;;;;;;;5042762;28;20478;-66
2021/03/21 09:05:07;;;;;;;31.10;13.85;;;;;;;;;;5052928;28;20070;-65
2021/03/21 09:07:34;;;;;;;34.70;14.90;;;;;;;;;;5042135;28;20021;-65
2021/03/21 09:10:08;;;;;;;30.80;13.80;;;;;;;;;;5052860;28;20554;-64
2021/03/21 09:12:34;;;;;;;34.88;14.10;;;;;;;;;;5046579;28;20031;-65
2021/03/21 09:15:12;;;;;;;39.85;15.27;;;;;;;;;;5050514;28;20417;-64
2021/03/21 09:17:37;;;;;;;31.75;14.38;;;;;;;;;;5050870;28;20029;-65
2021/03/21 09:20:04;;;;;;;28.67;14.27;;;;;;;;;;5053479;28;20032;-65
2021/03/21 09:22:33;;;;;;;32.03;15.27;;;;;;;;;;5051274;28;20021;-65
2021/03/21 09:25:00;;;;;;;29.45;12.82;;;;;;;;;;5048144;28;20035;-65
2021/03/21 09:27:33;;;;;;;29.67;13.95;;;;;;;;;;5049153;28;20025;-64
2021/03/21 09:30:02;;;;;;;35.05;15.40;;;;;;;;;;5049926;28;20029;-64
2021/03/21 09:32:32;;;;;;;32.63;14.05;;;;;;;;;;5049750;28;20155;-64
2021/03/21 09:35:22;;;;;;;30.08;13.55;;;;;;;;;;5050280;28;20060;-65
2021/03/21 09:37:48;;;;;;;24.77;11.85;;;;;;;;;;5048948;28;20029;-65
2021/03/21 09:40:22;;;;;;;23.40;12.35;;;;;;;;;;5050642;28;20043;-65
2021/03/21 09:42:48;;;;;;;22.10;12.13;;;;;;;;;;5049513;28;20036;-65
2021/03/21 09:45:14;;;;;;;19.15;11.63;;;;;;;;;;5049979;28;20222;-65
2021/03/21 09:47:46;;;;;;;16.98;10.02;;;;;;;;;;5049135;28;20386;-64
2021/03/21 09:50:11;;;;;;;20.40;9.20;;;;;;;;;;5047532;28;20020;-65
2021/03/21 09:52:41;;;;;;;15.93;7.88;;;;;;;;;;5055482;28;20021;-65
2021/03/21 09:55:26;;;;;;;18.85;6.47;;;;;;;;;;5057394;28;20389;-65
2021/03/21 09:58:04;;;;;;;15.18;6.38;;;;;;;;;;5041369;28;20121;-65
2021/03/21 10:00:32;;;;;;;12.85;5.50;;;;;;;;;;5049665;28;20024;-65
2021/03/21 10:03:02;;;;;;;23.90;5.53;;;;;;;;;;5048781;28;20025;-64
2021/03/21 10:05:34;;;;;;;15.68;5.22;;;;;;;;;;5053635;28;20458;-65
2021/03/21 10:07:59;;;;;;;15.38;5.15;;;;;;;;;;5035742;28;20033;-64
2021/03/21 10:10:28;;;;;;;15.27;4.20;;;;;;;;;;5049231;28;20095;-65
2021/03/21 10:12:53;;;;;;;15.20;3.83;;;;;;;;;;5049669;28;20263;-65
2021/03/21 10:15:24;;;;;;;12.05;3.22;;;;;;;;;;5047003;28;20417;-65
2021/03/21 10:17:49;;;;;;;;;;;;;;;;;;5049226;28;20020;-65
2021/03/21 10:20:15;;;;;;;15.07;3.63;;;;;;;;;;5049496;28;19912;-67
2021/03/21 10:22:40;;;;;;;25.98;3.80;;;;;;;;;;5047152;28;20031;-65
2021/03/21 10:25:09;;;;;;;21.87;3.57;;;;;;;;;;5050049;28;20036;-65
2021/03/21 10:27:47;;;;;;;15.88;3.67;;;;;;;;;;5050148;28;20259;-64
2021/03/21 10:30:12;;;;;;;15.05;3.90;;;;;;;;;;5049575;28;20039;-64
2021/03/21 10:32:39;;;;;;;19.42;3.95;;;;;;;;;;5047365;28;20021;-65
2021/03/21 10:35:12;;;;;;;25.90;4.78;;;;;;;;;;5047254;28;20028;-64
2021/03/21 10:37:48;;;;;;;14.32;3.80;;;;;;;;;;5044641;28;20167;-64
2021/03/21 10:40:23;;;;;;;21.95;3.83;;;;;;;;;;5047128;28;20510;-64
2021/03/21 10:42:50;;;;;;;20.10;4.45;;;;;;;;;;5048466;28;20036;-64
2021/03/21 10:45:18;;;;;;;22.45;3.90;;;;;;;;;;5029601;28;20127;-64
2021/03/21 10:47:45;;;;;;;23.83;6.00;;;;;;;;;;5047656;28;20033;-65
2021/03/21 10:50:14;;;;;;;21.38;4.40;;;;;;;;;;5046444;28;20510;-65
2021/03/21 10:52:41;;;;;;;21.13;4.93;;;;;;;;;;5048865;28;20469;-65
2021/03/21 10:55:12;;;;;;;27.42;4.70;;;;;;;;;;5047866;28;20032;-64
2021/03/21 10:57:41;;;;;;;26.70;5.13;;;;;;;;;;5048741;28;20017;-67
2021/03/21 11:00:12;;;;;;;25.30;4.53;;;;;;;;;;5049130;28;20410;-64
2021/03/21 11:02:40;;;;;;;24.98;5.10;;;;;;;;;;5049887;28;20500;-65
2021/03/21 11:05:07;;;;;;;24.80;4.75;;;;;;;;;;5049686;28;20028;-65
2021/03/21 11:07:33;;;;;;;21.80;4.25;;;;;;;;;;5048880;28;20361;-65
2021/03/21 11:10:00;;;;;;;20.08;4.28;;;;;;;;;;5047078;28;20028;-64
2021/03/21 11:12:30;;;;;;;22.73;4.22;;;;;;;;;;5049071;28;20055;-64
2021/03/21 11:14:55;;;;;;;;;;;;;;;;;;5050709;28;20207;-64
2021/03/21 11:17:22;;;;;;;33.67;5.78;;;;;;;;;;5050076;28;19908;-65
2021/03/21 11:19:49;;;;;;;21.50;4.55;;;;;;;;;;5050455;28;20015;-64
2021/03/21 11:22:29;;;;;;;25.27;5.03;;;;;;;;;;5050356;28;20111;-64
2021/03/21 11:24:54;;;;;;;38.88;5.72;;;;;;;;;;5056148;28;20216;-64
2021/03/21 11:27:25;;;;;;;39.25;4.95;;;;;;;;;;5049970;28;20504;-64
2021/03/21 11:29:51;;;;;;;26.65;4.78;;;;;;;;;;5049807;28;20454;-66
2021/03/21 11:32:27;;;;;;;30.42;4.50;;;;;;;;;;5049555;28;20044;-64
2021/03/21 11:34:57;;;;;;;23.00;4.47;;;;;;;;;;5049471;28;20094;-65
2021/03/21 11:37:27;;;;;;;37.27;5.20;;;;;;;;;;5050090;28;20483;-64
2021/03/21 11:39:52;;;;;;;36.47;6.95;;;;;;;;;;5050472;28;20321;-64
2021/03/21 11:42:32;;;;;;;28.80;4.33;;;;;;;;;;5048952;28;20469;-66
2021/03/21 11:45:14;;;;;;;30.02;5.03;;;;;;;;;;5039985;28;20884;-64
2021/03/21 11:47:44;;;;;;;30.90;5.00;;;;;;;;;;5050146;28;20037;-65
2021/03/21 11:50:16;;;;;;;27.13;5.20;;;;;;;;;;5049900;28;20021;-65
2021/03/21 11:52:41;;;;;;;27.85;5.57;;;;;;;;;;5050645;28;20017;-66
2021/03/21 11:55:07;;;;;;;26.27;5.13;;;;;;;;;;5050458;28;20047;-65
2021/03/21 11:57:43;;;;;;;24.27;5.03;;;;;;;;;;5050339;28;20029;-64
2021/03/21 12:00:29;;;;;;;29.45;6.75;;;;;;;;;;5050291;28;20373;-64
2021/03/21 12:03:05;;;;;;;30.50;4.82;;;;;;;;;;5050173;28;20037;-65
2021/03/21 12:05:35;;;;;;;37.90;9.95;;;;;;;;;;5049977;28;20096;-64
2021/03/21 12:08:05;;;;;;;23.38;7.75;;;;;;;;;;5035507;28;20017;-63
2021/03/21 12:10:32;;;;;;;45.15;8.90;;;;;;;;;;5049718;28;20037;-65
2021/03/21 12:12:58;;;;;;;37.42;8.95;;;;;;;;;;5050289;28;20473;-64
2021/03/21 12:15:23;;;;;;;34.83;7.25;;;;;;;;;;5049797;28;20021;-65
2021/03/21 12:17:59;;;;;;;34.90;8.00;;;;;;;;;;5049808;28;20509;-64
2021/03/21 12:20:32;;;;;;;34.67;7.90;;;;;;;;;;5050746;28;20264;-64
2021/03/21 12:22:58;;;;;;;37.35;8.52;;;;;;;;;;5054419;28;20079;-64
2021/03/21 12:25:26;;;;;;;35.08;8.00;;;;;;;;;;5054337;28;20424;-66
2021/03/21 12:28:00;;;;;;;39.58;7.22;;;;;;;;;;5054097;28;20045;-65
2021/03/21 12:30:35;;;;;;;34.17;7.65;;;;;;;;;;5039941;28;20497;-64
2021/03/21 12:33:27;;;;;;;31.23;6.60;;;;;;;;;;5051532;28;20020;-64
2021/03/21 12:36:12;;;;;;;51.78;7.95;;;;;;;;;;5032368;28;20037;-65
2021/03/21 12:38:46;;;;;;;32.55;7.53;;;;;;;;;;5034075;28;20021;-65
2021/03/21 12:41:22;;;;;;;39.75;8.75;;;;;;;;;;5039178;28;20021;-63
2021/03/21 12:44:07;;;;;;;36.85;7.78;;;;;;;;;;5053351;28;20037;-65
2021/03/21 12:46:40;;;;;;;49.00;7.22;;;;;;;;;;5052178;28;20028;-64
2021/03/21 12:49:11;;;;;;;43.38;6.60;;;;;;;;;;5046265;28;20025;-65
2021/03/21 12:51:36;;;;;;;28.70;6.35;;;;;;;;;;5053581;28;20082;-66
2021/03/21 12:54:02;;;;;;;42.65;7.45;;;;;;;;;;5053570;28;20071;-65
2021/03/21 12:56:28;;;;;;;51.75;8.55;;;;;;;;;;5053509;28;20024;-67
2021/03/21 12:58:53;;;;;;;36.83;6.20;;;;;;;;;;5035696;28;20029;-65
2021/03/21 13:01:20;;;;;;;34.28;5.88;;;;;;;;;;5052938;28;20152;-65
2021/03/21 13:03:46;;;;;;;29.80;5.22;;;;;;;;;;5053267;28;20013;-65
2021/03/21 13:06:11;;;;;;;33.25;7.05;;;;;;;;;;5052012;28;20068;-66
2021/03/21 13:08:36;;;;;;;35.95;6.05;;;;;;;;;;5052181;28;20040;-65
2021/03/21 13:11:03;;;;;;;37.55;8.50;;;;;;;;;;5052686;28;20031;-66
2021/03/21 13:13:28;;;;;;;35.38;5.53;;;;;;;;;;5051649;28;20064;-65
2021/03/21 13:15:54;;;;;;;44.20;6.45;;;;;;;;;;5034604;28;20049;-65
2021/03/21 13:18:20;;;;;;;44.90;7.93;;;;;;;;;;5052433;28;20017;-65
2021/03/21 13:20:46;;;;;;;53.10;8.07;;;;;;;;;;5049167;28;20163;-65
2021/03/21 13:23:11;;;;;;;41.50;7.18;;;;;;;;;;5051386;28;20017;-65
2021/03/21 13:25:36;;;;;;;36.33;7.28;;;;;;;;;;5050268;28;20114;-65
2021/03/21 13:28:03;;;;;;;33.28;6.13;;;;;;;;;;5052005;28;20027;-65
2021/03/21 13:30:29;;;;;;;35.42;7.70;;;;;;;;;;5051652;28;20103;-65
2021/03/21 13:32:55;;;;;;;32.88;6.95;;;;;;;;;;5051985;28;20039;-65
2021/03/21 13:35:21;;;;;;;36.65;7.57;;;;;;;;;;5052055;28;20519;-64
2021/03/21 13:37:47;;;;;;;49.28;6.22;;;;;;;;;;5051425;28;20059;-64
2021/03/21 13:40:16;;;;;;;39.22;6.10;;;;;;;;;;5051995;28;20049;-64
2021/03/21 13:42:41;;;;;;;41.03;5.80;;;;;;;;;;5048850;28;20036;-64
2021/03/21 13:45:07;;;;;;;32.10;6.07;;;;;;;;;;5051573;28;20343;-64
2021/03/21 13:47:32;;;;;;;42.78;7.78;;;;;;;;;;5051348;28;20025;-64
2021/03/21 13:49:58;;;;;;;35.10;7.82;;;;;;;;;;5051214;28;20021;-64
2021/03/21 13:52:23;;;;;;;42.00;10.10;;;;;;;;;;5050163;28;20021;-64
2021/03/21 13:54:49;;;;;;;38.28;7.28;;;;;;;;;;5055051;28;20024;-66
2021/03/21 13:57:14;;;;;;;49.88;8.77;;;;;;;;;;5055431;28;20385;-65
2021/03/21 13:59:39;;;;;;;48.95;7.70;;;;;;;;;;5057045;28;20051;-65
2021/03/21 14:02:04;;;;;;;35.70;6.97;;;;;;;;;;5055248;28;20028;-65
2021/03/21 14:04:30;;;;;;;48.88;8.73;;;;;;;;;;5055758;28;20020;-65
2021/03/21 14:06:55;;;;;;;37.63;7.95;;;;;;;;;;5054748;28;20029;-64
2021/03/21 14:09:21;;;;;;;39.90;8.00;;;;;;;;;;5051366;28;20483;-66
2021/03/21 14:11:46;;;;;;;33.85;6.93;;;;;;;;;;5051578;28;20017;-64
2021/03/21 14:14:11;;;;;;;33.08;7.35;;;;;;;;;;5051765;28;20052;-66
2021/03/21 14:16:36;;;;;;;39.25;6.88;;;;;;;;;;5051838;28;20013;-63
2021/03/21 14:19:02;;;;;;;40.00;6.05;;;;;;;;;;5051718;28;20075;-63
2021/03/21 14:21:27;;;;;;;40.55;6.63;;;;;;;;;;5051148;28;20055;-66
2021/03/21 14:23:52;;;;;;;30.45;6.60;;;;;;;;;;5051670;28;20013;-64
2021/03/21 14:26:17;;;;;;;38.17;7.97;;;;;;;;;;5051524;28;20044;-65
2021/03/21 14:28:42;;;;;;;30.07;7.10;;;;;;;;;;5033721;28;20083;-64
2021/03/21 14:31:09;;;;;;;34.75;6.28;;;;;;;;;;5049305;28;20687;-68
2021/03/21 14:33:35;;;;;;;33.67;6.57;;;;;;;;;;5048976;28;20029;-65
2021/03/21 14:36:00;;;;;;;43.35;7.38;;;;;;;;;;5051722;28;20024;-64
2021/03/21 14:38:26;;;;;;;36.28;7.90;;;;;;;;;;5050099;28;20286;-64
2021/03/21 14:40:52;;;;;;;36.53;6.90;;;;;;;;;;5051130;28;20025;-64